Time;durP1;ratioP1;P1;durP2;ratioP2;P2;SDS_P1;SDS_P2;PMS_P1;PMS_P2;Temp;Humidity;BMP_temperature;BMP_pressure;BME280_temperature;BME280_humidity;BME280_pressure;Samples;Min_cycle;Max_cycle;Signal;HPM_P1;HPM_P2
2023/10/31 00:01:16;;;;;;;2.42;1.90;;;22.70;43.90;;;;;;6123028;23;20262;-42
2023/10/31 00:03:44;;;;;;;2.22;1.77;;;22.70;43.90;;;;;;6124250;23;20264;-40
2023/10/31 00:06:11;;;;;;;2.30;2.10;;;22.70;43.90;;;;;;6124677;23;20199;-40
2023/10/31 00:08:37;;;;;;;2.03;1.83;;;22.70;43.90;;;;;;6119077;23;20254;-41
2023/10/31 00:11:03;;;;;;;2.67;2.00;;;22.70;43.90;;;;;;6122638;23;20649;-42
2023/10/31 00:13:30;;;;;;;2.17;1.90;;;22.70;43.90;;;;;;6123372;23;20697;-43
2023/10/31 00:15:56;;;;;;;2.17;1.90;;;22.70;43.90;;;;;;6124010;23;20700;-43
2023/10/31 00:18:23;;;;;;;2.33;2.00;;;22.70;43.90;;;;;;6123653;23;20564;-42
2023/10/31 00:20:49;;;;;;;2.35;1.80;;;22.70;43.90;;;;;;6123769;23;20180;-40
2023/10/31 00:23:16;;;;;;;2.85;2.15;;;22.70;43.90;;;;;;6123504;23;20247;-42
2023/10/31 00:25:42;;;;;;;2.08;1.88;;;22.70;43.90;;;;;;6121719;23;20258;-39
2023/10/31 00:28:09;;;;;;;2.10;1.92;;;22.80;43.90;;;;;;6122744;23;20532;-40
2023/10/31 00:30:35;;;;;;;1.77;1.67;;;22.80;43.90;;;;;;6123538;23;20603;-40
2023/10/31 00:33:02;;;;;;;2.65;2.10;;;22.80;43.90;;;;;;6124745;23;20560;-40
2023/10/31 00:35:28;;;;;;;2.15;1.73;;;22.80;43.90;;;;;;6123713;23;20633;-40
2023/10/31 00:37:54;;;;;;;3.50;2.25;;;22.80;43.90;;;;;;6123457;23;20932;-40
2023/10/31 00:40:21;;;;;;;2.30;2.10;;;22.80;43.90;;;;;;6123463;23;20279;-41
2023/10/31 00:42:47;;;;;;;2.47;2.00;;;22.80;43.90;;;;;;6123466;23;20179;-40
2023/10/31 00:45:14;;;;;;;2.20;1.90;;;22.80;43.90;;;;;;6124787;23;20207;-40
2023/10/31 00:47:40;;;;;;;1.92;1.77;;;22.80;43.90;;;;;;6126038;23;20278;-42
2023/10/31 00:50:07;;;;;;;2.83;1.75;;;22.80;43.90;;;;;;6125481;23;20203;-42
2023/10/31 00:52:34;;;;;;;2.50;1.90;;;22.80;43.90;;;;;;6126439;23;20179;-43
2023/10/31 00:55:00;;;;;;;3.15;1.98;;;22.80;43.90;;;;;;6126374;23;20255;-44
2023/10/31 00:57:27;;;;;;;2.25;2.00;;;22.80;43.90;;;;;;6126125;23;20278;-42
2023/10/31 00:59:53;;;;;;;2.28;2.08;;;22.80;43.90;;;;;;6125776;23;20187;-44
2023/10/31 01:02:20;;;;;;;2.25;1.90;;;22.80;43.90;;;;;;6123189;23;20263;-43
2023/10/31 01:04:46;;;;;;;2.40;1.77;;;22.80;43.90;;;;;;6125819;23;20641;-40
2023/10/31 01:07:16;;;;;;;1.90;1.80;;;22.80;43.90;;;;;;6124659;23;20246;-40
2023/10/31 01:09:43;;;;;;;1.88;1.77;;;22.80;43.80;;;;;;6123386;23;20439;-40
2023/10/31 01:12:10;;;;;;;1.95;1.80;;;22.80;43.90;;;;;;6125659;23;20259;-40
2023/10/31 01:14:36;;;;;;;2.78;2.00;;;22.80;43.90;;;;;;6123898;23;20641;-40
2023/10/31 01:17:03;;;;;;;3.50;2.03;;;22.80;43.90;;;;;;6125001;23;20224;-42
2023/10/31 01:19:29;;;;;;;2.42;2.13;;;22.80;43.90;;;;;;6122584;23;20266;-41
2023/10/31 01:21:56;;;;;;;2.60;1.70;;;22.80;43.90;;;;;;6124456;23;20271;-46
2023/10/31 01:24:23;;;;;;;1.70;1.60;;;22.80;43.80;;;;;;6126285;23;20262;-39
2023/10/31 01:26:49;;;;;;;2.30;1.70;;;22.80;43.80;;;;;;6125540;23;20684;-41
2023/10/31 01:29:16;;;;;;;2.10;1.90;;;22.80;43.90;;;;;;6124666;23;20727;-41
2023/10/31 01:31:42;;;;;;;2.17;1.90;;;22.80;43.90;;;;;;6125594;23;20737;-40
2023/10/31 01:34:09;;;;;;;2.47;1.90;;;22.80;43.90;;;;;;6126357;23;20690;-40
2023/10/31 01:36:35;;;;;;;3.63;1.80;;;22.80;43.90;;;;;;6122092;23;20196;-40
2023/10/31 01:39:02;;;;;;;1.80;1.70;;;22.70;43.80;;;;;;6120370;23;20176;-39
2023/10/31 01:41:28;;;;;;;2.55;1.90;;;22.80;43.80;;;;;;6125161;23;20186;-40
2023/10/31 01:43:54;;;;;;;2.05;1.80;;;22.80;43.90;;;;;;6126305;23;20182;-40
2023/10/31 01:46:21;;;;;;;2.28;1.80;;;22.80;43.90;;;;;;6124717;23;20279;-42
2023/10/31 01:48:47;;;;;;;2.13;1.55;;;22.80;43.80;;;;;;6124704;23;20175;-40
2023/10/31 01:51:14;;;;;;;1.95;1.75;;;22.80;43.80;;;;;;6125840;23;20287;-40
2023/10/31 01:53:40;;;;;;;2.20;2.00;;;22.80;43.80;;;;;;6126045;23;20258;-40
2023/10/31 01:56:07;;;;;;;2.17;1.80;;;22.80;43.80;;;;;;6124454;23;20278;-42
2023/10/31 01:58:33;;;;;;;2.15;1.95;;;22.80;43.80;;;;;;6123035;23;20207;-43
2023/10/31 02:01:00;;;;;;;2.33;2.00;;;22.80;43.80;;;;;;6123120;23;20262;-43
2023/10/31 02:03:26;;;;;;;2.05;1.63;;;22.70;43.70;;;;;;6125843;23;20585;-42
2023/10/31 02:05:53;;;;;;;1.63;1.52;;;22.80;43.80;;;;;;6125298;23;20282;-41
2023/10/31 02:08:19;;;;;;;2.05;1.40;;;22.80;43.90;;;;;;6125165;23;20223;-41
2023/10/31 02:10:45;;;;;;;2.38;1.88;;;22.80;43.80;;;;;;6125209;23;20292;-40
2023/10/31 02:13:12;;;;;;;1.92;1.77;;;22.80;43.90;;;;;;6124926;23;20259;-40
2023/10/31 02:15:38;;;;;;;1.95;1.70;;;22.80;43.90;;;;;;6122412;23;20274;-42
2023/10/31 02:18:05;;;;;;;1.70;1.60;;;22.80;43.90;;;;;;6123757;23;20259;-42
2023/10/31 02:20:31;;;;;;;2.17;1.70;;;22.80;43.90;;;;;;6124527;23;20214;-40
2023/10/31 02:22:58;;;;;;;1.85;1.75;;;22.80;43.90;;;;;;6124474;23;20267;-39
2023/10/31 02:25:24;;;;;;;1.92;1.40;;;22.80;43.90;;;;;;6125542;23;20255;-40
2023/10/31 02:27:51;;;;;;;3.35;1.60;;;22.80;43.90;;;;;;6125637;23;20218;-42
2023/10/31 02:30:17;;;;;;;2.28;1.73;;;22.80;43.90;;;;;;6124476;23;20290;-41
2023/10/31 02:32:43;;;;;;;1.98;1.65;;;22.80;43.90;;;;;;6121868;23;20251;-42
2023/10/31 02:35:10;;;;;;;1.67;1.55;;;22.80;43.90;;;;;;6124696;23;20262;-40
2023/10/31 02:37:36;;;;;;;1.65;1.42;;;22.80;43.90;;;;;;6125035;23;20279;-40
2023/10/31 02:40:03;;;;;;;3.15;1.70;;;22.80;43.90;;;;;;6124912;23;20282;-43
2023/10/31 02:42:29;;;;;;;2.67;1.67;;;22.80;43.90;;;;;;6123909;23;20661;-38
2023/10/31 02:44:57;;;;;;;2.90;1.88;;;22.80;43.90;;;;;;6125789;23;20179;-40
2023/10/31 02:47:23;;;;;;;2.90;1.75;;;22.70;44.60;;;;;;6124629;23;20200;-40
2023/10/31 02:49:49;;;;;;;1.90;1.75;;;22.80;44.00;;;;;;6120843;23;20200;-39
2023/10/31 02:52:16;;;;;;;2.33;1.50;;;22.80;43.90;;;;;;6124430;23;20259;-40
2023/10/31 02:54:42;;;;;;;2.30;1.60;;;22.80;43.90;;;;;;6124394;23;20175;-42
2023/10/31 02:57:09;;;;;;;2.08;1.50;;;22.80;43.90;;;;;;6124527;23;20200;-39
2023/10/31 02:59:35;;;;;;;1.92;1.50;;;22.80;44.00;;;;;;6124445;23;20291;-40
2023/10/31 03:02:02;;;;;;;2.00;1.52;;;22.80;43.90;;;;;;6124526;23;20259;-41
2023/10/31 03:04:28;;;;;;;1.73;1.50;;;22.80;43.90;;;;;;6124911;23;20255;-43
2023/10/31 03:06:55;;;;;;;1.80;1.70;;;22.80;43.90;;;;;;6125167;23;20202;-39
2023/10/31 03:09:21;;;;;;;2.97;1.58;;;22.80;43.90;;;;;;6120516;23;20263;-39
2023/10/31 03:11:48;;;;;;;3.30;1.55;;;22.80;44.00;;;;;;6123254;23;20294;-39
2023/10/31 03:14:14;;;;;;;2.17;1.58;;;22.80;43.90;;;;;;6124707;23;20176;-40
2023/10/31 03:16:40;;;;;;;2.15;1.70;;;22.80;43.90;;;;;;6122894;23;20270;-40
2023/10/31 03:19:07;;;;;;;3.03;1.70;;;22.80;43.90;;;;;;6122814;23;20176;-42
2023/10/31 03:21:33;;;;;;;2.90;2.00;;;22.80;44.00;;;;;;6125150;23;20266;-40
2023/10/31 03:24:00;;;;;;;1.92;1.75;;;22.70;43.90;;;;;;6124279;23;20255;-39
2023/10/31 03:26:26;;;;;;;1.90;1.70;;;22.80;44.00;;;;;;6122986;23;20275;-40
2023/10/31 03:28:56;;;;;;;2.00;1.77;;;22.80;43.90;;;;;;6121313;23;20732;-40
2023/10/31 03:31:23;;;;;;;2.53;1.75;;;22.70;43.90;;;;;;6124575;23;20227;-39
2023/10/31 03:33:49;;;;;;;2.78;1.70;;;22.80;44.00;;;;;;6124547;23;20214;-39
2023/10/31 03:36:16;;;;;;;1.63;1.52;;;22.70;43.90;;;;;;6124857;23;20275;-43
2023/10/31 03:38:42;;;;;;;2.38;1.63;;;22.80;44.00;;;;;;6123884;23;20263;-40
2023/10/31 03:41:09;;;;;;;2.78;1.50;;;22.80;44.00;;;;;;6124964;23;20212;-40
2023/10/31 03:43:35;;;;;;;1.45;1.33;;;22.80;44.00;;;;;;6123108;23;20581;-41
2023/10/31 03:46:02;;;;;;;2.13;1.70;;;22.80;44.00;;;;;;6121990;23;20203;-44
2023/10/31 03:48:28;;;;;;;1.75;1.60;;;22.80;44.00;;;;;;6121294;23;20188;-39
2023/10/31 03:50:55;;;;;;;2.00;1.80;;;22.80;44.00;;;;;;6123806;23;20729;-41
2023/10/31 03:53:21;;;;;;;3.33;1.45;;;22.80;44.00;;;;;;6123597;23;20689;-40
2023/10/31 03:55:47;;;;;;;1.60;1.50;;;22.80;44.00;;;;;;6122418;23;20743;-39
2023/10/31 03:58:14;;;;;;;1.88;1.67;;;22.80;44.00;;;;;;6123521;23;20182;-42
2023/10/31 04:00:40;;;;;;;3.28;1.50;;;22.80;44.00;;;;;;6123384;23;20368;-41
2023/10/31 04:03:07;;;;;;;2.10;1.50;;;22.80;44.00;;;;;;6121639;23;20182;-41
2023/10/31 04:05:33;;;;;;;1.73;1.63;;;22.80;44.00;;;;;;6122760;23;20275;-41
2023/10/31 04:08:00;;;;;;;3.42;1.75;;;22.80;44.10;;;;;;6124108;23;20255;-43
2023/10/31 04:10:26;;;;;;;2.55;1.67;;;22.80;44.00;;;;;;6123849;23;20199;-39
2023/10/31 04:12:53;;;;;;;2.33;1.50;;;22.80;44.10;;;;;;6124107;23;20267;-41
2023/10/31 04:15:19;;;;;;;3.15;1.50;;;22.80;44.10;;;;;;6123236;23;20275;-40
2023/10/31 04:17:46;;;;;;;2.05;1.60;;;22.80;44.10;;;;;;6123467;23;20608;-39
2023/10/31 04:20:12;;;;;;;1.83;1.60;;;22.80;44.10;;;;;;6121336;23;20255;-41
2023/10/31 04:22:39;;;;;;;3.38;1.75;;;22.80;44.10;;;;;;6121776;23;20230;-39
2023/10/31 04:25:05;;;;;;;1.60;1.50;;;22.80;44.10;;;;;;6124294;23;20705;-39
2023/10/31 04:27:32;;;;;;;2.50;1.60;;;22.80;44.10;;;;;;6123561;23;20721;-39
2023/10/31 04:29:58;;;;;;;1.95;1.35;;;22.70;44.00;;;;;;6123924;23;20191;-39
2023/10/31 04:32:24;;;;;;;4.07;1.95;;;22.80;44.10;;;;;;6123233;23;20187;-41
2023/10/31 04:34:51;;;;;;;2.08;1.67;;;22.80;44.10;;;;;;6123695;23;20211;-41
2023/10/31 04:37:17;;;;;;;1.75;1.63;;;22.80;44.10;;;;;;6122114;23;20299;-41
2023/10/31 04:39:44;;;;;;;3.50;1.85;;;22.80;44.10;;;;;;6121879;23;20655;-40
2023/10/31 04:42:10;;;;;;;1.90;1.50;;;22.80;44.10;;;;;;6123931;23;20630;-39
2023/10/31 04:44:37;;;;;;;1.60;1.42;;;22.80;44.10;;;;;;6123823;23;20555;-40
2023/10/31 04:47:03;;;;;;;1.83;1.55;;;22.80;44.10;;;;;;6124016;23;20232;-40
2023/10/31 04:49:30;;;;;;;1.48;1.38;;;22.80;44.10;;;;;;6124381;23;20208;-40
2023/10/31 04:51:56;;;;;;;2.08;1.60;;;22.80;44.10;;;;;;6124650;23;20298;-39
2023/10/31 04:54:22;;;;;;;1.60;1.50;;;22.80;44.20;;;;;;6121470;23;20255;-39
2023/10/31 04:56:49;;;;;;;1.50;1.40;;;22.80;44.10;;;;;;6122575;23;20200;-41
2023/10/31 04:59:15;;;;;;;1.77;1.40;;;22.80;44.20;;;;;;6122223;23;20217;-40
2023/10/31 05:01:42;;;;;;;2.10;1.38;;;22.80;44.10;;;;;;6122995;23;20180;-45
2023/10/31 05:04:08;;;;;;;1.83;1.45;;;22.80;44.10;;;;;;6124014;23;20667;-40
2023/10/31 05:06:35;;;;;;;2.72;1.55;;;22.80;44.10;;;;;;6123990;23;20585;-41
2023/10/31 05:09:01;;;;;;;1.52;1.40;;;22.80;44.10;;;;;;6124268;23;20182;-40
2023/10/31 05:11:28;;;;;;;2.63;1.42;;;22.80;44.90;;;;;;6123236;23;20283;-40
2023/10/31 05:13:54;;;;;;;1.83;1.67;;;22.70;44.10;;;;;;6120847;23;20243;-40
2023/10/31 05:16:20;;;;;;;4.10;1.77;;;22.70;44.10;;;;;;6122304;23;20227;-39
2023/10/31 05:18:47;;;;;;;1.73;1.50;;;22.70;44.10;;;;;;6123027;23;20255;-43
2023/10/31 05:21:13;;;;;;;2.92;1.60;;;22.80;44.20;;;;;;6123901;23;20191;-41
2023/10/31 05:23:41;;;;;;;2.20;1.45;;;22.80;44.20;;;;;;6122630;23;20259;-41
2023/10/31 05:26:07;;;;;;;2.65;1.60;;;22.80;44.20;;;;;;6123538;23;20278;-41
2023/10/31 05:28:34;;;;;;;1.70;1.60;;;22.80;44.20;;;;;;6124814;23;20260;-42
2023/10/31 05:31:00;;;;;;;1.70;1.50;;;22.80;44.90;;;;;;6122771;23;20283;-40
2023/10/31 05:33:26;;;;;;;3.28;1.35;;;22.80;44.90;;;;;;6124574;23;20702;-42
2023/10/31 05:35:53;;;;;;;3.00;1.60;;;22.70;44.10;;;;;;6124781;23;20744;-41
2023/10/31 05:38:19;;;;;;;1.95;1.42;;;22.80;44.20;;;;;;6124326;23;20696;-43
2023/10/31 05:40:46;;;;;;;2.70;1.60;;;22.80;44.20;;;;;;6123063;23;20234;-40
2023/10/31 05:43:12;;;;;;;1.98;1.23;;;22.80;44.20;;;;;;6124238;23;20208;-40
2023/10/31 05:45:39;;;;;;;2.88;1.73;;;22.80;44.20;;;;;;6125164;23;20282;-40
2023/10/31 05:48:05;;;;;;;2.40;1.40;;;22.80;44.30;;;;;;6125405;23;20290;-39
2023/10/31 05:50:32;;;;;;;1.45;1.35;;;22.80;44.20;;;;;;6125056;23;20187;-39
2023/10/31 05:52:58;;;;;;;1.65;1.45;;;22.80;44.90;;;;;;6125423;23;20263;-39
2023/10/31 05:55:24;;;;;;;1.65;1.45;;;22.80;44.20;;;;;;6125522;23;20195;-40
2023/10/31 05:57:51;;;;;;;3.45;1.40;;;22.80;44.20;;;;;;6120772;23;20184;-39
2023/10/31 06:00:17;;;;;;;2.15;1.58;;;22.80;44.20;;;;;;6123060;23;20186;-39
2023/10/31 06:02:44;;;;;;;1.30;1.20;;;22.80;44.20;;;;;;6125164;23;20264;-39
2023/10/31 06:05:10;;;;;;;1.48;1.38;;;22.80;44.30;;;;;;6125440;23;20568;-40
2023/10/31 06:07:37;;;;;;;2.85;1.23;;;22.80;44.30;;;;;;6126225;23;20326;-39
2023/10/31 06:10:03;;;;;;;1.77;1.42;;;22.80;44.30;;;;;;6124675;23;20293;-40
2023/10/31 06:12:30;;;;;;;2.35;1.52;;;22.80;44.30;;;;;;6123979;23;20291;-42
2023/10/31 06:14:57;;;;;;;1.88;1.52;;;22.80;44.30;;;;;;6123091;23;20279;-40
2023/10/31 06:17:24;;;;;;;1.50;1.38;;;22.80;44.30;;;;;;6124121;23;20172;-41
2023/10/31 06:19:51;;;;;;;1.83;1.45;;;22.80;44.30;;;;;;6123069;23;20176;-40
2023/10/31 06:22:17;;;;;;;1.63;1.17;;;22.80;44.30;;;;;;6125444;23;20271;-40
2023/10/31 06:24:44;;;;;;;1.60;1.30;;;22.80;44.30;;;;;;6125145;23;20180;-40
2023/10/31 06:27:10;;;;;;;1.48;1.30;;;22.70;44.30;;;;;;6125220;23;20259;-40
2023/10/31 06:29:37;;;;;;;1.23;1.13;;;22.80;44.60;;;;;;6123808;23;20176;-41
2023/10/31 06:32:03;;;;;;;4.50;1.60;;;22.80;44.60;;;;;;6123715;23;20245;-40
2023/10/31 06:34:29;;;;;;;3.03;1.40;;;22.80;44.50;;;;;;6121531;23;20263;-41
2023/10/31 06:36:56;;;;;;;2.22;1.52;;;22.80;44.40;;;;;;6122462;23;20176;-40
2023/10/31 06:39:23;;;;;;;2.08;1.30;;;22.80;44.50;;;;;;6118689;23;21017;-41
2023/10/31 06:41:49;;;;;;;2.70;1.50;;;22.80;44.40;;;;;;6123220;23;20179;-39
2023/10/31 06:44:16;;;;;;;1.83;1.60;;;22.80;44.40;;;;;;6125982;23;20275;-40
2023/10/31 06:46:42;;;;;;;2.17;1.50;;;22.80;44.40;;;;;;6125201;23;20195;-42
2023/10/31 06:49:09;;;;;;;2.47;1.40;;;22.80;44.40;;;;;;6122632;23;20186;-40
2023/10/31 06:51:35;;;;;;;2.17;1.30;;;22.80;44.40;;;;;;6124501;23;20665;-40
2023/10/31 06:54:02;;;;;;;1.60;1.50;;;22.70;44.40;;;;;;6125568;23;20179;-40
2023/10/31 06:56:29;;;;;;;2.65;1.30;;;22.80;44.40;;;;;;6123286;23;20200;-40
2023/10/31 06:58:55;;;;;;;2.60;1.40;;;22.80;44.50;;;;;;6122155;23;20183;-40
2023/10/31 07:01:22;;;;;;;3.20;1.65;;;22.80;44.50;;;;;;6119669;23;20259;-39
2023/10/31 07:03:49;;;;;;;1.38;1.27;;;22.80;44.40;;;;;;6121885;23;20204;-40
2023/10/31 07:06:15;;;;;;;2.95;1.50;;;22.80;44.50;;;;;;6121572;23;20203;-41
2023/10/31 07:08:41;;;;;;;2.60;1.20;;;22.80;44.40;;;;;;6123271;23;20263;-42
2023/10/31 07:11:08;;;;;;;3.78;1.50;;;22.80;44.40;;;;;;6119802;23;20200;-44
2023/10/31 07:13:34;;;;;;;2.53;1.45;;;22.70;44.40;;;;;;6123703;23;20255;-39
2023/10/31 07:16:01;;;;;;;2.38;1.55;;;22.70;44.40;;;;;;6123480;23;20278;-41
2023/10/31 07:18:27;;;;;;;2.72;1.48;;;22.80;44.40;;;;;;6122384;23;20652;-40
2023/10/31 07:20:54;;;;;;;2.00;1.40;;;22.80;44.50;;;;;;6121487;23;20689;-40
2023/10/31 07:23:20;;;;;;;2.22;1.42;;;22.70;44.40;;;;;;6121507;23;20195;-39
2023/10/31 07:25:47;;;;;;;2.40;1.30;;;22.80;44.50;;;;;;6123750;23;20199;-40
2023/10/31 07:28:13;;;;;;;2.15;1.52;;;22.80;44.40;;;;;;6119147;23;20263;-39
2023/10/31 07:30:39;;;;;;;2.95;1.48;;;22.70;44.40;;;;;;6123826;23;20554;-39
2023/10/31 07:33:06;;;;;;;2.22;1.38;;;22.80;44.50;;;;;;6124522;23;20251;-39
2023/10/31 07:35:33;;;;;;;2.40;1.15;;;22.80;44.50;;;;;;6117787;23;20206;-38
2023/10/31 07:37:59;;;;;;;3.55;1.20;;;22.80;44.50;;;;;;6122012;23;20183;-44
2023/10/31 07:40:26;;;;;;;5.28;1.73;;;22.80;44.60;;;;;;6121050;23;20179;-46
2023/10/31 07:42:52;;;;;;;2.72;1.77;;;22.80;44.70;;;;;;6119909;23;20270;-42
2023/10/31 07:45:19;;;;;;;3.58;1.40;;;22.70;44.40;;;;;;6125270;23;20200;-43
2023/10/31 07:47:45;;;;;;;3.03;1.63;;;22.70;44.20;;;;;;6119045;23;20258;-44
2023/10/31 07:50:13;;;;;;;2.40;1.73;;;22.60;44.20;;;;;;6122803;23;20198;-44
2023/10/31 07:52:39;;;;;;;5.45;1.67;;;22.60;44.10;;;;;;6123970;23;20740;-44
2023/10/31 07:55:06;;;;;;;3.00;1.30;;;22.50;43.30;;;;;;6118497;23;20287;-44
2023/10/31 07:57:32;;;;;;;2.78;1.63;;;22.40;42.60;;;;;;6122755;23;20336;-45
2023/10/31 07:59:58;;;;;;;3.92;1.30;;;22.30;42.10;;;;;;6122627;23;20262;-45
2023/10/31 08:02:25;;;;;;;2.50;1.40;;;22.30;41.40;;;;;;6123887;23;20255;-44
2023/10/31 08:04:51;;;;;;;3.33;1.30;;;22.20;41.00;;;;;;6124006;23;20235;-44
2023/10/31 08:07:18;;;;;;;2.35;1.05;;;22.20;40.80;;;;;;6123087;23;20255;-44
2023/10/31 08:09:44;;;;;;;1.67;1.25;;;22.20;40.60;;;;;;6119130;23;20183;-44
2023/10/31 08:12:11;;;;;;;2.05;1.13;;;22.20;40.60;;;;;;6118487;23;20387;-44
2023/10/31 08:14:37;;;;;;;2.30;1.20;;;21.40;35.80;;;;;;6118136;23;20214;-43
2023/10/31 08:17:04;;;;;;;2.83;1.20;;;19.30;39.50;;;;;;6121438;23;20695;-38
2023/10/31 08:19:30;;;;;;;2.53;1.40;;;20.30;41.50;;;;;;6121159;23;20227;-39
2023/10/31 08:21:56;;;;;;;2.63;1.10;;;21.10;41.00;;;;;;6123047;23;20270;-40
2023/10/31 08:24:23;;;;;;;2.95;1.13;;;21.50;40.70;;;;;;6123065;23;20689;-44
2023/10/31 08:26:49;;;;;;;1.95;1.52;;;21.80;41.00;;;;;;6121655;23;20567;-44
2023/10/31 08:29:16;;;;;;;2.05;1.17;;;22.00;41.10;;;;;;6122393;23;20211;-37
2023/10/31 08:31:42;;;;;;;1.30;1.20;;;22.20;41.70;;;;;;6120786;23;20204;-42
2023/10/31 08:34:10;;;;;;;1.95;1.20;;;22.40;42.50;;;;;;6105009;23;20833;-48
2023/10/31 08:36:36;;;;;;;2.08;1.10;;;22.40;41.90;;;;;;6119145;23;20198;-40
2023/10/31 08:39:03;;;;;;;1.30;1.13;;;22.40;42.00;;;;;;6123214;23;20545;-41
2023/10/31 08:41:29;;;;;;;1.65;0.95;;;22.40;42.40;;;;;;6121621;23;20184;-35
2023/10/31 08:43:58;;;;;;;2.40;1.20;;;22.50;42.50;;;;;;6123785;23;20373;-36
2023/10/31 08:46:24;;;;;;;1.58;1.17;;;22.50;42.50;;;;;;6123753;23;20219;-41
2023/10/31 08:48:50;;;;;;;1.05;0.95;;;22.50;42.50;;;;;;6123024;23;20275;-43
2023/10/31 08:51:17;;;;;;;1.10;1.00;;;22.50;42.50;;;;;;6124043;23;20254;-45
2023/10/31 08:53:43;;;;;;;1.40;1.30;;;22.60;42.80;;;;;;6122411;23;20259;-36
2023/10/31 08:56:10;;;;;;;2.78;0.90;;;22.60;42.80;;;;;;6123982;23;20227;-38
2023/10/31 08:58:36;;;;;;;0.90;0.90;;;22.50;42.80;;;;;;6122868;23;20222;-39
2023/10/31 09:01:03;;;;;;;2.17;1.10;;;22.50;42.80;;;;;;6123119;23;20264;-42
2023/10/31 09:03:29;;;;;;;1.75;1.00;;;22.50;43.50;;;;;;6123039;23;20247;-39
2023/10/31 09:05:56;;;;;;;1.33;0.80;;;22.60;42.90;;;;;;6122675;23;20202;-41
2023/10/31 09:08:23;;;;;;;4.03;1.13;;;22.60;43.30;;;;;;6125153;23;20180;-45
2023/10/31 09:10:49;;;;;;;1.00;0.90;;;22.60;43.40;;;;;;6124873;23;20183;-41
2023/10/31 09:13:15;;;;;;;1.75;0.95;;;22.70;43.40;;;;;;6124918;23;20217;-41
2023/10/31 09:15:42;;;;;;;1.60;1.00;;;22.70;43.40;;;;;;6125252;23;20271;-41
2023/10/31 09:18:08;;;;;;;2.05;1.00;;;22.70;43.40;;;;;;6125265;23;20184;-42
2023/10/31 09:20:35;;;;;;;1.10;1.00;;;22.60;43.30;;;;;;6121622;23;20706;-43
2023/10/31 09:23:01;;;;;;;1.20;0.95;;;22.60;43.30;;;;;;6123456;23;20242;-43
2023/10/31 09:25:29;;;;;;;1.88;0.85;;;22.60;43.40;;;;;;6123215;23;20650;-41
2023/10/31 09:27:55;;;;;;;1.10;0.88;;;22.60;43.50;;;;;;6123799;23;20180;-41
2023/10/31 09:30:21;;;;;;;0.85;0.80;;;22.60;43.60;;;;;;6124175;23;20258;-47
2023/10/31 09:32:48;;;;;;;1.75;1.00;;;22.60;43.70;;;;;;6123776;23;20279;-47
2023/10/31 09:35:14;;;;;;;0.93;0.93;;;22.40;42.20;;;;;;6120714;23;20274;-46
2023/10/31 09:37:41;;;;;;;1.00;0.90;;;22.40;42.10;;;;;;6124933;23;20255;-46
2023/10/31 09:40:07;;;;;;;3.15;1.27;;;22.50;42.70;;;;;;6124645;23;20211;-46
2023/10/31 09:42:34;;;;;;;0.90;0.90;;;22.50;43.00;;;;;;6125752;23;20274;-46
2023/10/31 09:45:00;;;;;;;1.05;0.95;;;22.50;43.20;;;;;;6124934;23;20238;-45
2023/10/31 09:47:27;;;;;;;1.15;1.05;;;22.50;43.10;;;;;;6124704;23;20708;-45
2023/10/31 09:49:53;;;;;;;3.05;1.10;;;22.50;43.00;;;;;;6124811;23;20689;-45
2023/10/31 09:52:20;;;;;;;1.55;1.13;;;22.50;43.30;;;;;;6121921;23;20204;-44
2023/10/31 09:54:46;;;;;;;2.72;1.55;;;22.50;43.30;;;;;;6123239;23;20203;-42
2023/10/31 09:57:13;;;;;;;1.70;0.98;;;22.50;43.10;;;;;;6123221;23;20215;-40
2023/10/31 09:59:39;;;;;;;3.45;1.30;;;22.50;43.40;;;;;;6122792;23;20259;-40
2023/10/31 10:02:05;;;;;;;1.58;1.02;;;22.50;43.40;;;;;;6125602;23;20258;-42
2023/10/31 10:04:32;;;;;;;0.85;0.82;;;22.60;43.50;;;;;;6125710;23;20231;-41
2023/10/31 10:06:58;;;;;;;1.58;0.80;;;22.50;43.60;;;;;;6126033;23;20175;-40
2023/10/31 10:09:25;;;;;;;0.93;0.85;;;22.50;43.60;;;;;;6122194;23;20455;-40
2023/10/31 10:11:52;;;;;;;1.48;1.02;;;22.50;43.60;;;;;;6125813;23;20572;-41
2023/10/31 10:14:18;;;;;;;1.27;1.00;;;22.50;43.60;;;;;;6123836;23;20213;-41
2023/10/31 10:16:44;;;;;;;1.42;1.05;;;22.50;43.70;;;;;;6125449;23;20255;-40
2023/10/31 10:19:10;;;;;;;0.93;0.85;;;22.50;43.70;;;;;;6124893;23;20176;-41
2023/10/31 10:21:36;;;;;;;1.08;0.95;;;22.50;43.70;;;;;;6124596;23;20660;-42
2023/10/31 10:24:03;;;;;;;0.98;0.88;;;22.50;43.70;;;;;;6125451;23;20254;-40
2023/10/31 10:26:29;;;;;;;1.20;1.10;;;22.50;43.70;;;;;;6125961;23;20432;-41
2023/10/31 10:28:56;;;;;;;1.17;1.00;;;22.50;43.80;;;;;;6124359;23;20566;-40
2023/10/31 10:31:22;;;;;;;1.60;1.00;;;22.50;43.80;;;;;;6120877;23;20250;-40
2023/10/31 10:33:49;;;;;;;1.00;0.90;;;22.50;43.90;;;;;;6125105;23;20246;-41
2023/10/31 10:36:15;;;;;;;1.15;0.80;;;22.50;43.80;;;;;;6125686;23;20253;-39
2023/10/31 10:38:42;;;;;;;1.58;0.95;;;22.50;43.80;;;;;;6125342;23;20255;-42
2023/10/31 10:41:08;;;;;;;1.10;0.90;;;22.50;43.80;;;;;;6126036;23;20255;-44
2023/10/31 10:43:35;;;;;;;2.55;1.15;;;22.50;43.80;;;;;;6125713;23;20263;-42
2023/10/31 10:46:01;;;;;;;1.08;0.88;;;22.50;43.80;;;;;;6124009;23;20274;-40
2023/10/31 10:48:28;;;;;;;1.23;1.02;;;22.50;43.80;;;;;;6121071;23;20215;-40
2023/10/31 10:50:54;;;;;;;2.13;1.25;;;22.50;43.80;;;;;;6111532;23;20184;-37
2023/10/31 10:53:20;;;;;;;1.75;0.90;;;22.50;43.80;;;;;;6114430;23;20218;-42
2023/10/31 10:55:47;;;;;;;2.03;1.10;;;22.60;43.80;;;;;;6115084;23;20200;-42
2023/10/31 10:58:13;;;;;;;0.95;0.95;;;22.60;43.70;;;;;;6141722;23;20179;-42
2023/10/31 11:00:40;;;;;;;1.20;1.00;;;22.60;43.70;;;;;;6141901;23;20266;-41
2023/10/31 11:03:06;;;;;;;1.67;1.10;;;22.60;43.80;;;;;;6149027;23;20215;-42
2023/10/31 11:05:33;;;;;;;1.10;1.00;;;22.60;43.80;;;;;;6143011;23;20651;-42
2023/10/31 11:08:00;;;;;;;1.15;1.02;;;22.50;43.80;;;;;;6142773;23;20274;-41
2023/10/31 11:10:26;;;;;;;2.58;1.10;;;22.60;43.90;;;;;;6143096;23;20265;-42
2023/10/31 11:12:53;;;;;;;2.05;1.10;;;22.60;43.90;;;;;;6147645;23;20278;-42
2023/10/31 11:15:19;;;;;;;2.15;0.90;;;22.50;43.90;;;;;;6150901;23;20203;-42
2023/10/31 11:17:46;;;;;;;1.17;0.90;;;22.50;43.90;;;;;;6150140;23;20206;-41
2023/10/31 11:20:14;;;;;;;1.75;0.98;;;22.60;44.00;;;;;;6149421;23;20194;-42
2023/10/31 11:22:40;;;;;;;1.58;1.10;;;22.60;44.70;;;;;;6166579;23;20237;-41
2023/10/31 11:25:07;;;;;;;0.93;0.85;;;22.60;44.10;;;;;;6183442;23;20194;-40
2023/10/31 11:27:33;;;;;;;2.35;0.90;;;22.60;43.90;;;;;;6184022;23;20257;-41
2023/10/31 11:30:00;;;;;;;1.10;1.00;;;22.60;44.10;;;;;;6182822;23;20392;-44
2023/10/31 11:32:26;;;;;;;1.10;1.00;;;22.60;44.00;;;;;;6176813;23;20202;-42
2023/10/31 11:34:52;;;;;;;2.00;1.08;;;22.70;44.50;;;;;;6182005;23;20273;-41
2023/10/31 11:37:19;;;;;;;1.48;0.80;;;22.70;44.20;;;;;;6180942;23;20257;-41
2023/10/31 11:39:45;;;;;;;1.10;1.00;;;22.70;44.20;;;;;;6183746;23;20261;-42
2023/10/31 11:42:12;;;;;;;2.35;1.00;;;22.70;45.30;;;;;;6180490;23;20185;-43
2023/10/31 11:44:38;;;;;;;1.67;1.58;;;22.80;44.90;;;;;;6175716;23;20277;-36
2023/10/31 11:47:05;;;;;;;1.55;0.95;;;22.80;44.80;;;;;;6179711;23;20678;-35
2023/10/31 11:49:31;;;;;;;1.25;1.00;;;22.80;44.60;;;;;;6182224;23;20229;-41
2023/10/31 11:51:58;;;;;;;1.20;1.00;;;22.70;44.40;;;;;;6178055;23;20249;-40
2023/10/31 11:54:24;;;;;;;1.52;1.05;;;22.70;44.60;;;;;;6175909;23;20446;-42
2023/10/31 11:56:50;;;;;;;2.75;1.02;;;22.70;44.50;;;;;;6179043;23;20257;-35
2023/10/31 11:59:17;;;;;;;1.38;1.27;;;22.70;44.60;;;;;;6178496;23;20259;-40
2023/10/31 12:01:44;;;;;;;2.08;1.10;;;22.70;44.50;;;;;;6173663;23;20171;-42
2023/10/31 12:04:10;;;;;;;4.97;1.25;;;22.80;44.70;;;;;;6174604;23;20249;-43
2023/10/31 12:06:37;;;;;;;1.15;1.02;;;22.70;44.60;;;;;;6176275;23;20178;-45
2023/10/31 12:09:03;;;;;;;0.95;0.85;;;22.80;44.60;;;;;;6177652;23;20217;-42
2023/10/31 12:11:29;;;;;;;1.00;0.90;;;22.80;44.70;;;;;;6179851;23;20206;-37
2023/10/31 12:13:56;;;;;;;2.55;1.10;;;22.80;44.60;;;;;;6180497;23;20217;-44
2023/10/31 12:16:23;;;;;;;1.20;1.00;;;22.80;44.70;;;;;;6180345;23;20237;-40
2023/10/31 12:18:49;;;;;;;1.00;0.90;;;22.80;44.50;;;;;;6178668;23;20554;-41
2023/10/31 12:21:15;;;;;;;1.42;1.20;;;22.80;44.50;;;;;;6179400;23;20296;-40
2023/10/31 12:23:42;;;;;;;1.00;0.90;;;22.80;44.50;;;;;;6175523;23;20166;-43
2023/10/31 12:26:10;;;;;;;1.20;0.80;;;22.80;44.60;;;;;;6174823;23;20175;-41
2023/10/31 12:28:38;;;;;;;1.40;1.10;;;22.80;44.60;;;;;;6173524;23;20239;-44
2023/10/31 12:31:04;;;;;;;1.35;1.20;;;22.80;44.70;;;;;;6174147;23;20261;-44
2023/10/31 12:33:30;;;;;;;1.13;1.02;;;22.80;44.80;;;;;;6175778;23;20241;-36
2023/10/31 12:35:57;;;;;;;1.92;1.35;;;22.80;44.60;;;;;;6174847;23;20257;-38
2023/10/31 12:38:23;;;;;;;1.08;0.80;;;22.80;44.50;;;;;;6172300;23;20285;-43
2023/10/31 12:40:50;;;;;;;1.88;1.00;;;22.80;44.70;;;;;;6173635;23;20185;-41
2023/10/31 12:43:17;;;;;;;0.93;0.90;;;22.80;44.70;;;;;;6177553;23;20182;-41